Time;durP1;ratioP1;P1;durP2;ratioP2;P2;SDS_P1;SDS_P2;PMS_P1;PMS_P2;Temp;Humidity;BMP_temperature;BMP_pressure;BME280_temperature;BME280_humidity;BME280_pressure;Samples;Min_cycle;Max_cycle;Signal;HPM_P1;HPM_P2
2021/09/02 00:00:28;;;;;;;33.63;14.10;;;;;;;12.98;76.51;101489.72;5023859;28;20402;-80
2021/09/02 00:02:55;;;;;;;72.03;16.10;;;;;;;13.07;76.29;101491.81;5023563;28;20065;-79
2021/09/02 00:05:23;;;;;;;64.80;16.98;;;;;;;13.09;75.96;101483.97;5024016;28;20065;-79
2021/09/02 00:07:50;;;;;;;68.15;16.42;;;;;;;13.08;76.58;101488.72;5023262;28;20042;-79
2021/09/02 00:10:19;;;;;;;65.70;17.75;;;;;;;13.03;77.27;101490.78;5023319;28;20391;-79
2021/09/02 00:12:48;;;;;;;84.93;19.88;;;;;;;13.13;77.17;101491.41;5023334;28;20038;-79
2021/09/02 00:15:15;;;;;;;88.63;20.15;;;;;;;13.22;77.07;101488.75;5022924;28;20050;-79
2021/09/02 00:17:43;;;;;;;96.35;21.90;;;;;;;13.15;77.61;101488.31;5022750;28;20387;-80
2021/09/02 00:20:12;;;;;;;68.63;19.02;;;;;;;13.24;77.81;101491.25;5022456;28;20518;-78
2021/09/02 00:22:39;;;;;;;106.15;21.70;;;;;;;13.27;77.43;101497.06;5022920;28;20061;-79
2021/09/02 00:25:08;;;;;;;119.45;21.08;;;;;;;13.33;77.62;101497.81;5036657;28;20064;-79
2021/09/02 00:27:35;;;;;;;155.23;24.15;;;;;;;13.25;77.82;101493.75;5043401;28;20056;-79
2021/09/02 00:30:05;;;;;;;64.25;17.35;;;;;;;13.32;77.61;101487.78;5040914;28;20053;-80
2021/09/02 00:32:33;;;;;;;97.72;18.80;;;;;;;13.34;77.41;101486.31;5041749;28;20053;-79
2021/09/02 00:35:00;;;;;;;81.13;18.55;;;;;;;13.32;77.66;101488.59;5042590;28;20060;-79
2021/09/02 00:37:31;;;;;;;109.10;19.23;;;;;;;13.35;77.96;101492.75;5041952;28;20520;-79
2021/09/02 00:39:58;;;;;;;69.90;16.95;;;;;;;13.35;78.57;101496.34;5041628;28;20068;-79
2021/09/02 00:42:25;;;;;;;54.65;15.70;;;;;;;13.39;78.04;101493.78;5022525;28;20490;-79
2021/09/02 00:44:53;;;;;;;64.88;15.65;;;;;;;13.39;78.11;101489.00;5022264;28;20129;-80
2021/09/02 00:47:22;;;;;;;64.47;16.45;;;;;;;13.30;77.87;101496.47;5022065;28;20462;-80
2021/09/02 00:49:50;;;;;;;66.75;15.02;;;;;;;13.32;77.78;101490.56;5022897;28;20053;-78
2021/09/02 00:52:19;;;;;;;60.15;16.17;;;;;;;13.26;77.33;101494.56;5022089;28;20065;-79
2021/09/02 00:54:48;;;;;;;52.75;17.23;;;;;;;13.30;77.15;101495.66;5034451;28;20056;-79
2021/09/02 00:57:20;;;;;;;47.00;15.60;;;;;;;13.25;77.49;101487.28;5041379;28;20049;-79
2021/09/02 00:59:48;;;;;;;56.40;18.17;;;;;;;13.20;76.70;101482.63;5041743;28;20064;-80
2021/09/02 01:02:17;;;;;;;48.10;16.88;;;;;;;13.17;76.50;101486.06;5042226;28;20053;-80
2021/09/02 01:04:46;;;;;;;37.88;16.60;;;;;;;13.12;76.74;101492.56;5041598;28;20486;-79
2021/09/02 01:07:14;;;;;;;58.15;18.92;;;;;;;13.13;76.17;101493.41;5042014;28;20046;-80
2021/09/02 01:09:43;;;;;;;46.35;18.48;;;;;;;13.07;76.53;101494.63;5022706;28;20056;-79
2021/09/02 01:12:31;;;;;;;47.70;17.60;;;;;;;13.07;76.10;101486.22;5022522;28;20049;-79
2021/09/02 01:15:01;;;;;;;46.70;17.77;;;;;;;13.06;77.09;101488.22;5020781;28;20395;-80
2021/09/02 01:17:31;;;;;;;45.83;17.75;;;;;;;13.10;76.96;101483.66;5021412;28;20054;-79
2021/09/02 01:20:00;;;;;;;35.38;16.50;;;;;;;13.13;77.23;101485.00;5021286;28;20057;-78
2021/09/02 01:22:28;;;;;;;46.13;17.55;;;;;;;13.20;77.13;101486.25;5021384;28;20064;-79
2021/09/02 01:25:01;;;;;;;46.43;17.40;;;;;;;13.25;76.88;101479.75;5032741;28;20056;-80
2021/09/02 01:27:28;;;;;;;33.53;15.82;;;;;;;13.27;76.73;101485.88;5042029;28;20053;-79
2021/09/02 01:29:57;;;;;;;38.38;16.10;;;;;;;13.29;77.29;101483.63;5042220;28;20057;-79
2021/09/02 01:32:25;;;;;;;39.10;16.38;;;;;;;13.33;76.35;101481.88;5041980;28;20474;-79
2021/09/02 01:34:57;;;;;;;35.83;14.70;;;;;;;13.35;76.26;101478.75;5041789;28;20060;-79
2021/09/02 01:37:25;;;;;;;43.13;14.43;;;;;;;13.40;75.98;101478.66;5047307;28;20061;-79
2021/09/02 01:39:53;;;;;;;36.53;14.27;;;;;;;13.42;75.32;101487.59;5025081;28;20046;-78
2021/09/02 01:42:22;;;;;;;27.50;12.80;;;;;;;13.42;75.68;101486.72;5020514;28;20442;-80
2021/09/02 01:44:52;;;;;;;18.30;12.27;;;;;;;13.40;75.56;101489.88;5022000;28;20061;-80
2021/09/02 01:47:21;;;;;;;29.35;13.30;;;;;;;13.44;75.74;101484.47;5020392;28;20072;-79
2021/09/02 01:49:49;;;;;;;29.80;13.35;;;;;;;13.46;75.38;101483.03;5021585;28;20053;-80
2021/09/02 01:52:17;;;;;;;35.90;12.90;;;;;;;13.43;74.67;101482.81;5021251;28;20054;-79
2021/09/02 01:54:45;;;;;;;28.60;13.55;;;;;;;13.36;74.71;101489.63;5034943;28;20049;-80
2021/09/02 01:57:13;;;;;;;36.22;13.25;;;;;;;13.36;74.41;101489.63;5041178;28;20053;-79
2021/09/02 01:59:42;;;;;;;42.20;13.35;;;;;;;13.36;74.63;101484.03;5041340;28;20049;-79
2021/09/02 02:02:09;;;;;;;24.40;12.63;;;;;;;13.31;75.20;101483.31;5041536;28;20053;-79
2021/09/02 02:04:37;;;;;;;30.73;13.77;;;;;;;13.33;75.06;101484.69;5036717;28;20476;-79
2021/09/02 02:07:05;;;;;;;56.13;14.88;;;;;;;13.32;75.45;101477.41;5020788;28;20494;-80
2021/09/02 02:09:34;;;;;;;24.10;13.50;;;;;;;13.30;75.52;101468.50;5021111;28;20102;-79
2021/09/02 02:12:01;;;;;;;42.00;13.52;;;;;;;13.30;75.25;101468.50;5021355;28;20387;-80
2021/09/02 02:14:29;;;;;;;47.10;13.90;;;;;;;13.24;75.29;101464.09;5020298;28;20061;-80
2021/09/02 02:16:57;;;;;;;53.08;15.32;;;;;;;13.24;76.19;101466.88;5019995;28;20050;-80
2021/09/02 02:19:25;;;;;;;42.50;13.40;;;;;;;13.24;75.58;101468.88;5021549;28;20060;-79
2021/09/02 02:21:52;;;;;;;46.72;14.43;;;;;;;13.25;75.39;101465.75;5021351;28;20403;-79
2021/09/02 02:24:19;;;;;;;46.00;13.52;;;;;;;13.22;75.30;101463.56;5019852;28;20046;-79
2021/09/02 02:26:47;;;;;;;39.30;13.30;;;;;;;13.19;75.69;101461.41;5020787;28;20053;-78
2021/09/02 02:29:14;;;;;;;35.58;13.23;;;;;;;13.10;75.66;101458.47;5020255;28;20061;-79
2021/09/02 02:31:44;;;;;;;39.95;12.88;;;;;;;13.11;76.13;101450.91;5019871;28;20061;-79
2021/09/02 02:34:13;;;;;;;34.60;12.07;;;;;;;13.10;76.42;101460.44;5019183;28;20053;-79
2021/09/02 02:36:40;;;;;;;42.27;13.07;;;;;;;13.14;76.02;101455.88;5021117;28;20046;-79
2021/09/02 02:39:08;;;;;;;39.08;13.90;;;;;;;13.14;76.60;101453.91;5029452;28;20156;-79
2021/09/02 02:41:37;;;;;;;51.38;14.00;;;;;;;13.18;77.07;101454.13;5040572;28;20065;-79
2021/09/02 02:44:05;;;;;;;44.67;13.77;;;;;;;13.20;77.21;101460.25;5039501;28;20057;-79
2021/09/02 02:46:33;;;;;;;37.90;13.10;;;;;;;13.23;77.21;101456.84;5040144;28;20050;-79
2021/09/02 02:49:00;;;;;;;46.75;13.80;;;;;;;13.27;77.01;101452.28;5040126;28;20053;-80
2021/09/02 02:51:29;;;;;;;43.55;14.48;;;;;;;13.14;76.77;101458.69;5039546;28;20056;-78
2021/09/02 02:53:56;;;;;;;51.80;16.02;;;;;;;13.12;76.86;101456.22;5037765;28;20056;-79
2021/09/02 02:56:23;;;;;;;100.03;17.88;;;;;;;13.13;77.14;101457.03;5040033;28;20057;-79
2021/09/02 02:58:51;;;;;;;54.28;15.13;;;;;;;13.12;77.43;101464.59;5039940;28;20064;-79
2021/09/02 03:01:19;;;;;;;34.67;14.20;;;;;;;13.15;77.42;101463.16;5040698;28;20046;-79
2021/09/02 03:03:46;;;;;;;60.42;15.57;;;;;;;13.16;77.23;101460.03;5040602;28;20057;-79
2021/09/02 03:06:14;;;;;;;36.83;14.50;;;;;;;13.17;77.57;101450.50;5040312;28;20160;-79
2021/09/02 03:08:43;;;;;;;47.13;14.07;;;;;;;13.10;77.41;101446.44;5022627;28;20054;-80
2021/09/02 03:11:12;;;;;;;58.40;13.73;;;;;;;13.16;76.89;101453.59;4999878;28;20061;-80
2021/09/02 03:13:41;;;;;;;96.15;17.42;;;;;;;13.13;77.22;101451.44;5000799;28;20065;-79
2021/09/02 03:16:08;;;;;;;56.42;15.27;;;;;;;13.09;77.24;101458.78;5001240;28;20073;-79
2021/09/02 03:18:37;;;;;;;55.53;14.70;;;;;;;13.15;77.28;101451.97;5001253;28;20051;-79
2021/09/02 03:21:05;;;;;;;48.40;14.90;;;;;;;13.10;77.18;101446.44;5006645;28;20068;-79
2021/09/02 03:23:33;;;;;;;210.27;24.73;;;;;;;13.15;76.93;101449.16;5025361;28;20042;-79
2021/09/02 03:26:01;;;;;;;40.95;15.85;;;;;;;13.14;77.48;101441.91;5020546;28;20053;-79
2021/09/02 03:28:29;;;;;;;56.22;15.82;;;;;;;13.16;77.48;101439.63;5020417;28;20057;-79
2021/09/02 03:30:56;;;;;;;66.45;16.45;;;;;;;13.10;77.29;101443.66;5020744;28;20050;-79
2021/09/02 03:33:23;;;;;;;79.07;17.63;;;;;;;13.05;76.96;101443.75;5019582;28;20062;-79
2021/09/02 03:35:51;;;;;;;69.68;15.45;;;;;;;12.89;77.22;101443.19;5020139;28;20487;-80
2021/09/02 03:38:18;;;;;;;30.13;13.40;;;;;;;12.92;77.72;101440.59;5020386;28;20057;-79
2021/09/02 03:40:45;;;;;;;39.92;13.80;;;;;;;12.98;77.56;101439.38;5040061;28;20069;-79
2021/09/02 03:43:14;;;;;;;46.17;15.82;;;;;;;13.00;77.73;101444.69;5040344;28;20049;-79
2021/09/02 03:45:41;;;;;;;45.67;14.13;;;;;;;13.00;77.82;101437.13;5020013;28;20054;-79
2021/09/02 03:48:08;;;;;;;86.13;17.15;;;;;;;13.01;78.11;101437.94;5019210;28;20394;-78
2021/09/02 03:50:36;;;;;;;58.22;15.57;;;;;;;13.01;77.46;101443.53;5020219;28;20046;-80
2021/09/02 03:53:03;;;;;;;82.75;16.75;;;;;;;13.03;76.78;101435.66;5020341;28;20053;-79
2021/09/02 03:55:31;;;;;;;60.40;14.90;;;;;;;13.00;77.10;101434.31;5020175;28;20050;-79
2021/09/02 03:57:58;;;;;;;47.72;14.02;;;;;;;12.97;77.40;101436.88;5019616;28;20053;-79
2021/09/02 04:00:27;;;;;;;20.33;12.15;;;;;;;12.96;77.48;101441.66;5019137;28;20054;-79
2021/09/02 04:02:54;;;;;;;40.33;12.68;;;;;;;12.96;77.96;101438.84;5019924;28;20049;-79
2021/09/02 04:05:22;;;;;;;51.88;14.43;;;;;;;12.99;78.20;101445.81;5022751;28;20507;-79
2021/09/02 04:07:49;;;;;;;78.10;16.45;;;;;;;13.03;78.05;101443.22;5024603;28;20061;-79
2021/09/02 04:10:16;;;;;;;57.15;12.40;;;;;;;13.06;77.62;101440.66;5023667;28;20349;-78
2021/09/02 04:12:43;;;;;;;38.80;10.60;;;;;;;13.03;77.86;101441.25;5023278;28;20065;-77
2021/09/02 04:15:11;;;;;;;51.95;11.43;;;;;;;13.06;77.96;101437.84;5026915;28;20057;-78
2021/09/02 04:17:40;;;;;;;41.33;11.95;;;;;;;13.06;77.36;101437.84;5044063;28;20060;-79
2021/09/02 04:20:08;;;;;;;82.47;15.57;;;;;;;13.07;77.83;101436.72;5042830;28;20056;-79
2021/09/02 04:22:35;;;;;;;98.00;17.17;;;;;;;13.09;77.56;101439.19;5043252;28;20472;-78
2021/09/02 04:25:04;;;;;;;41.75;12.63;;;;;;;12.76;77.62;101431.66;5041811;28;20057;-79
2021/09/02 04:27:31;;;;;;;66.95;15.73;;;;;;;12.92;78.14;101432.22;5043788;28;20053;-79
2021/09/02 04:29:59;;;;;;;62.67;15.63;;;;;;;12.95;77.85;101437.19;5023225;28;20435;-79
2021/09/02 04:32:26;;;;;;;54.78;14.05;;;;;;;12.99;77.72;101440.22;5023107;28;20421;-79
2021/09/02 04:34:55;;;;;;;39.70;12.30;;;;;;;12.98;77.56;101433.78;5023320;28;20406;-79
2021/09/02 04:37:22;;;;;;;113.37;19.00;;;;;;;12.94;77.28;101438.34;5023973;28;20061;-79
2021/09/02 04:39:50;;;;;;;53.47;14.02;;;;;;;12.98;77.20;101436.59;5023737;28;20058;-78
2021/09/02 04:42:17;;;;;;;37.92;11.70;;;;;;;13.02;76.52;101434.03;5022738;28;20061;-80
2021/09/02 04:44:45;;;;;;;47.10;12.38;;;;;;;12.99;76.51;101434.63;5024292;28;20054;-79
2021/09/02 04:47:12;;;;;;;56.03;13.38;;;;;;;12.97;76.61;101436.88;5023934;28;20065;-79
2021/09/02 04:49:39;;;;;;;102.88;18.20;;;;;;;12.93;76.32;101435.84;5022566;28;20383;-80
2021/09/02 04:52:08;;;;;;;27.88;10.50;;;;;;;12.87;76.30;101434.28;5022857;28;20053;-80
2021/09/02 04:54:35;;;;;;;57.80;14.32;;;;;;;12.79;76.40;101435.81;5036232;28;20486;-78
2021/09/02 04:57:03;;;;;;;28.25;11.90;;;;;;;12.85;76.48;101430.94;5035880;28;20054;-79
2021/09/02 04:59:30;;;;;;;27.80;10.98;;;;;;;12.90;76.26;101442.06;5023060;28;20054;-79
2021/09/02 05:01:58;;;;;;;39.28;12.30;;;;;;;12.95;76.03;101441.97;5022548;28;20061;-79
2021/09/02 05:04:25;;;;;;;29.90;11.20;;;;;;;12.88;76.36;101435.94;5023219;28;20046;-79
2021/09/02 05:06:52;;;;;;;34.25;11.93;;;;;;;12.91;76.70;101430.53;5023570;28;20049;-80
2021/09/02 05:09:21;;;;;;;24.38;10.00;;;;;;;12.97;76.52;101425.69;5037173;28;20049;-79
2021/09/02 05:11:48;;;;;;;29.33;10.68;;;;;;;13.03;76.61;101434.84;5029379;28;20042;-79
2021/09/02 05:14:16;;;;;;;19.73;10.30;;;;;;;13.09;76.98;101426.03;5023425;28;20073;-79
2021/09/02 05:16:46;;;;;;;24.35;9.55;;;;;;;13.15;76.62;101426.78;5019936;28;20058;-79
2021/09/02 05:19:13;;;;;;;30.20;10.70;;;;;;;13.19;74.98;101431.44;5020521;28;20045;-78
2021/09/02 05:21:41;;;;;;;13.07;8.00;;;;;;;13.23;74.49;101434.47;5002814;28;20050;-79
2021/09/02 05:24:08;;;;;;;14.82;7.93;;;;;;;13.28;74.42;101431.56;5022314;28;20050;-79
2021/09/02 05:26:37;;;;;;;11.15;7.85;;;;;;;13.32;73.92;101434.59;5022589;28;20057;-79
2021/09/02 05:29:04;;;;;;;10.60;7.77;;;;;;;13.37;73.97;101434.50;5020384;28;20057;-79
2021/09/02 05:31:33;;;;;;;13.13;7.38;;;;;;;13.43;73.67;101432.44;5014816;28;20058;-79
2021/09/02 05:34:00;;;;;;;13.77;7.85;;;;;;;13.52;73.49;101427.75;5004757;28;20058;-78
2021/09/02 05:36:27;;;;;;;7.95;6.70;;;;;;;13.54;72.94;101428.28;5019161;28;20045;-79
2021/09/02 05:38:55;;;;;;;8.98;6.68;;;;;;;13.60;72.76;101432.63;5021685;28;20065;-79
2021/09/02 05:41:22;;;;;;;5.95;5.35;;;;;;;13.65;72.24;101429.75;5021120;28;20053;-79
2021/09/02 05:43:51;;;;;;;7.88;6.35;;;;;;;13.69;72.45;101430.78;5021350;28;20073;-79
2021/09/02 05:46:18;;;;;;;7.43;6.43;;;;;;;13.77;72.02;101427.25;5021866;28;20049;-79
2021/09/02 05:48:47;;;;;;;7.35;6.13;;;;;;;13.84;71.84;101431.56;5021436;28;20388;-79
2021/09/02 05:51:14;;;;;;;16.40;7.93;;;;;;;13.91;71.45;101420.78;5020709;28;20049;-79
2021/09/02 05:53:42;;;;;;;11.98;7.63;;;;;;;13.93;71.48;101424.13;5021300;28;20068;-79
2021/09/02 05:56:09;;;;;;;18.73;7.50;;;;;;;14.02;70.76;101414.63;5020865;28;20054;-78
2021/09/02 05:58:36;;;;;;;41.67;8.68;;;;;;;14.13;70.45;101422.81;5020254;28;20061;-79
2021/09/02 06:01:05;;;;;;;10.95;6.63;;;;;;;14.15;70.44;101428.94;5015913;28;20058;-78
2021/09/02 06:03:33;;;;;;;8.48;6.32;;;;;;;14.23;70.70;101427.34;5021074;28;20057;-79
2021/09/02 06:06:00;;;;;;;7.22;6.45;;;;;;;14.34;70.03;101428.75;5021858;28;20069;-79
2021/09/02 06:08:35;;;;;;;14.23;6.40;;;;;;;14.43;69.54;101429.69;5021291;28;20058;-85
2021/09/02 06:11:02;;;;;;;7.53;6.40;;;;;;;14.42;69.69;101422.41;5020532;28;20475;-82
2021/09/02 06:13:30;;;;;;;8.02;5.82;;;;;;;14.62;69.64;101435.16;5019652;28;20054;-81
2021/09/02 06:15:58;;;;;;;7.60;6.15;;;;;;;14.83;68.78;101432.66;5019378;28;20045;-81
2021/09/02 06:18:26;;;;;;;10.45;6.18;;;;;;;14.98;68.39;101431.41;5018936;28;20050;-81
2021/09/02 06:20:54;;;;;;;7.82;5.53;;;;;;;15.18;67.99;101427.22;5033372;28;20053;-81
2021/09/02 06:23:21;;;;;;;6.10;4.38;;;;;;;15.32;66.72;101433.56;5038476;28;20053;-81
2021/09/02 06:25:51;;;;;;;6.28;4.30;;;;;;;15.40;65.57;101431.97;5039995;28;20064;-78
2021/09/02 06:28:18;;;;;;;;;;;;;;;15.39;64.80;101442.38;5027850;28;20045;-78
2021/09/02 06:30:45;;;;;;;8.10;4.80;;;;;;;15.51;64.53;101444.56;5020674;28;20251;-78
2021/09/02 06:33:12;;;;;;;8.10;4.63;;;;;;;15.63;63.86;101443.94;5019830;28;20478;-78
2021/09/02 06:35:41;;;;;;;7.93;4.93;;;;;;;15.67;63.47;101444.97;5020432;28;20054;-78
2021/09/02 06:38:09;;;;;;;5.85;4.47;;;;;;;15.70;63.42;101444.28;5018213;28;20054;-78
2021/09/02 06:40:37;;;;;;;6.15;4.60;;;;;;;15.88;62.90;101447.22;5018838;28;20061;-78
2021/09/02 06:43:04;;;;;;;8.00;5.00;;;;;;;15.89;62.94;101455.28;5019833;28;20050;-78
2021/09/02 06:45:31;;;;;;;7.80;5.50;;;;;;;15.92;62.95;101459.44;5021141;28;20060;-78
2021/09/02 06:47:59;;;;;;;8.85;5.13;;;;;;;16.01;62.48;101460.28;5025093;28;20050;-78
2021/09/02 06:50:29;;;;;;;8.50;5.20;;;;;;;16.16;61.94;101462.63;5020237;28;20073;-78
2021/09/02 06:52:58;;;;;;;6.28;5.68;;;;;;;16.34;61.55;101459.84;5021312;28;20077;-78
2021/09/02 06:55:25;;;;;;;9.03;5.60;;;;;;;16.29;61.21;101455.19;5020092;28;20056;-78
2021/09/02 06:57:53;;;;;;;13.52;5.70;;;;;;;16.31;61.40;101454.88;5020824;28;20054;-78
2021/09/02 07:00:22;;;;;;;9.77;5.68;;;;;;;16.41;61.04;101454.56;5020833;28;20057;-78
2021/09/02 07:02:49;;;;;;;6.90;5.80;;;;;;;16.34;61.05;101455.03;5037924;28;20064;-78
2021/09/02 07:05:17;;;;;;;7.80;5.90;;;;;;;16.76;60.32;101452.56;5039241;28;20057;-80
2021/09/02 07:07:45;;;;;;;7.18;6.03;;;;;;;16.98;59.46;101445.91;5030559;28;20765;-78
2021/09/02 07:10:14;;;;;;;8.48;5.57;;;;;;;17.18;59.19;101437.94;5013859;28;20076;-80
2021/09/02 07:12:41;;;;;;;5.68;4.93;;;;;;;17.37;58.64;101444.00;5010292;28;20392;-79
2021/09/02 07:15:09;;;;;;;7.90;5.63;;;;;;;17.55;57.79;101435.47;5010548;28;20058;-79
2021/09/02 07:17:36;;;;;;;7.82;5.50;;;;;;;17.74;57.48;101433.03;5006128;28;20061;-80
2021/09/02 07:20:06;;;;;;;5.57;5.00;;;;;;;18.04;57.60;101433.09;5017653;28;20049;-78
2021/09/02 07:22:35;;;;;;;6.70;5.13;;;;;;;18.49;56.51;101428.75;5010790;28;20073;-81
2021/09/02 07:25:02;;;;;;;5.80;5.20;;;;;;;19.28;54.02;101429.66;5006022;28;20049;-81
2021/09/02 07:27:32;;;;;;;7.15;5.72;;;;;;;20.04;51.97;101432.97;5012263;28;20054;-79
2021/09/02 07:29:59;;;;;;;6.28;5.43;;;;;;;20.94;50.10;101428.00;5013756;28;20061;-79
2021/09/02 07:32:27;;;;;;;8.50;5.25;;;;;;;21.78;48.49;101426.97;5008907;28;20069;-80
2021/09/02 07:34:54;;;;;;;6.22;5.20;;;;;;;22.66;46.20;101429.38;5017383;28;20060;-80
2021/09/02 07:37:22;;;;;;;5.97;5.38;;;;;;;23.50;43.86;101436.25;5009402;28;20057;-78
2021/09/02 07:39:49;;;;;;;5.45;4.75;;;;;;;24.45;42.51;101442.22;5007452;28;20419;-80
2021/09/02 07:42:16;;;;;;;6.32;4.93;;;;;;;25.25;40.23;101447.69;5017135;28;20058;-79
2021/09/02 07:44:45;;;;;;;8.02;5.97;;;;;;;26.06;38.12;101449.63;5017885;28;20053;-79
2021/09/02 07:47:14;;;;;;;5.90;5.07;;;;;;;26.84;37.35;101442.69;5003019;28;20609;-80
2021/09/02 07:49:42;;;;;;;6.40;5.80;;;;;;;27.51;35.50;101437.53;5001347;28;20061;-80
2021/09/02 07:52:10;;;;;;;6.82;5.78;;;;;;;27.97;35.62;101433.03;5000537;28;20050;-81
2021/09/02 07:54:38;;;;;;;8.90;7.47;;;;;;;28.45;34.07;101426.78;5016162;28;20134;-80
2021/09/02 07:57:05;;;;;;;8.20;6.60;;;;;;;29.18;32.59;101428.91;5008622;28;20424;-80
2021/09/02 07:59:33;;;;;;;7.85;6.45;;;;;;;29.59;32.21;101428.19;5003785;28;20507;-79
2021/09/02 08:02:02;;;;;;;10.85;7.30;;;;;;;29.56;32.23;101431.91;5019664;28;20061;-80
2021/09/02 08:04:29;;;;;;;;;;;;;;;30.03;31.20;101425.75;5011804;28;20061;-79
2021/09/02 08:06:56;;;;;;;8.95;7.38;;;;;;;30.28;31.01;101431.22;5013835;28;19921;-80
2021/09/02 08:09:23;;;;;;;9.75;7.50;;;;;;;30.71;30.71;101427.88;5003176;28;20065;-80
2021/09/02 08:11:50;;;;;;;9.60;7.28;;;;;;;31.26;29.92;101426.69;5009035;28;20065;-80
2021/09/02 08:14:18;;;;;;;10.88;6.80;;;;;;;31.69;29.96;101426.00;5008551;28;20065;-80
2021/09/02 08:16:45;;;;;;;8.50;7.07;;;;;;;32.24;28.75;101425.84;5010285;28;20400;-81
2021/09/02 08:19:14;;;;;;;9.38;8.07;;;;;;;32.38;28.04;101418.97;5010920;28;20054;-81
2021/09/02 08:21:41;;;;;;;8.82;7.93;;;;;;;33.34;27.43;101424.72;5017497;28;20058;-81
2021/09/02 08:24:09;;;;;;;10.18;8.15;;;;;;;33.83;26.30;101418.94;5014632;28;20053;-80
2021/09/02 08:26:36;;;;;;;9.70;8.20;;;;;;;33.99;26.29;101426.75;5016515;28;20067;-81
2021/09/02 08:29:04;;;;;;;11.63;8.10;;;;;;;34.95;25.23;101423.19;5015213;28;20058;-81
2021/09/02 08:31:32;;;;;;;12.18;8.48;;;;;;;35.57;24.52;101422.84;5018080;28;20057;-81
2021/09/02 08:33:59;;;;;;;10.95;8.60;;;;;;;36.48;23.35;101421.28;5016526;28;20050;-81
2021/09/02 08:36:28;;;;;;;14.32;8.90;;;;;;;37.36;22.36;101423.25;5011315;28;20415;-81
2021/09/02 08:38:56;;;;;;;14.30;9.05;;;;;;;37.84;21.81;101417.88;5009368;28;20057;-81
2021/09/02 08:41:23;;;;;;;11.77;9.02;;;;;;;38.11;21.73;101422.91;5018214;28;20057;-80
2021/09/02 08:43:51;;;;;;;9.50;8.43;;;;;;;38.91;20.96;101422.97;5020405;28;20050;-80
2021/09/02 08:46:18;;;;;;;12.67;10.03;;;;;;;39.07;20.09;101422.63;5001445;28;20054;-81
2021/09/02 08:48:47;;;;;;;12.70;9.27;;;;;;;39.88;19.31;101410.22;5010940;28;20826;-81
2021/09/02 08:51:15;;;;;;;11.55;8.85;;;;;;;40.38;18.45;101418.38;5012585;28;20054;-80
2021/09/02 08:53:44;;;;;;;13.32;9.75;;;;;;;40.89;18.84;101411.38;5006059;28;20058;-81
2021/09/02 08:56:12;;;;;;;11.48;9.45;;;;;;;41.15;17.90;101413.63;5008571;28;20499;-80
2021/09/02 08:58:40;;;;;;;;;;;;;;;40.85;17.94;101409.97;5015595;28;20061;-81
2021/09/02 09:01:10;;;;;;;12.27;10.70;;;;;;;41.37;17.38;101416.13;5008045;28;19926;-81
2021/09/02 09:03:38;;;;;;;12.05;10.25;;;;;;;41.69;17.19;101413.44;4999571;28;20058;-81
2021/09/02 09:06:07;;;;;;;13.88;9.98;;;;;;;41.46;17.74;101424.78;5014185;28;20053;-80
2021/09/02 09:08:38;;;;;;;11.05;9.43;;;;;;;41.99;16.67;101414.84;5016662;28;20534;-81
2021/09/02 09:11:18;;;;;;;10.75;9.65;;;;;;;42.42;16.52;101410.56;5018397;28;20046;-79
2021/09/02 09:13:46;;;;;;;12.32;9.88;;;;;;;42.53;16.74;101408.59;5006349;28;20055;-81
2021/09/02 09:16:13;;;;;;;9.98;8.77;;;;;;;43.14;16.20;101413.38;5011674;28;20056;-79
2021/09/02 09:18:43;;;;;;;10.80;9.07;;;;;;;43.12;16.09;101413.09;5012405;28;20789;-79
2021/09/02 09:21:13;;;;;;;12.00;8.40;;;;;;;43.12;15.95;101410.16;5012549;28;20487;-79
2021/09/02 09:23:58;;;;;;;10.52;8.40;;;;;;;43.90;15.42;101414.91;5009930;28;20053;-78
2021/09/02 09:26:30;;;;;;;10.50;9.02;;;;;;;43.96;15.68;101406.94;5014327;28;20062;-79
2021/09/02 09:29:00;;;;;;;10.05;7.93;;;;;;;44.33;16.07;101406.00;4998350;28;20416;-79
2021/09/02 09:31:30;;;;;;;12.45;9.48;;;;;;;44.78;14.66;101409.00;5008134;28;20364;-79
2021/09/02 09:34:02;;;;;;;10.05;8.70;;;;;;;44.82;14.88;101407.94;5005718;28;20061;-79
2021/09/02 09:36:32;;;;;;;8.85;7.53;;;;;;;44.99;15.01;101402.88;5011145;28;20050;-78
2021/09/02 09:39:05;;;;;;;9.60;8.57;;;;;;;44.94;14.93;101400.72;5015943;28;20061;-78
2021/09/02 09:41:40;;;;;;;9.68;8.68;;;;;;;44.22;14.90;101400.09;5019294;28;20065;-79
2021/09/02 09:44:19;;;;;;;9.65;8.57;;;;;;;44.92;14.53;101385.75;5007885;28;20066;-78
2021/09/02 09:47:10;;;;;;;10.48;8.57;;;;;;;45.17;13.89;101401.50;5013084;28;20050;-79
2021/09/02 09:49:47;;;;;;;13.25;8.95;;;;;;;44.92;14.61;101386.56;4999146;28;20519;-82
2021/09/02 09:52:29;;;;;;;10.02;8.45;;;;;;;45.02;14.38;101398.84;5017376;28;20052;-77
2021/09/02 09:55:06;;;;;;;9.18;7.72;;;;;;;45.38;15.13;101387.28;5010050;28;20050;-77
2021/09/02 09:57:36;;;;;;;10.60;8.43;;;;;;;45.85;14.20;101387.41;5011852;28;20069;-77
2021/09/02 10:00:06;;;;;;;9.00;7.93;;;;;;;46.28;13.89;101386.91;5012462;28;20517;-80
2021/09/02 10:02:36;;;;;;;8.10;7.28;;;;;;;46.09;13.49;101395.59;5013976;28;20049;-79
2021/09/02 10:05:06;;;;;;;12.35;8.07;;;;;;;45.90;14.13;101389.53;5006656;28;20395;-79
2021/09/02 10:07:35;;;;;;;8.82;7.72;;;;;;;46.81;13.56;101386.84;5002245;28;20046;-78
2021/09/02 10:10:04;;;;;;;9.35;7.97;;;;;;;46.13;13.34;101380.59;4999472;28;20050;-81
2021/09/02 10:12:34;;;;;;;11.85;9.05;;;;;;;46.80;12.89;101372.63;5017618;28;20053;-81
2021/09/02 10:15:08;;;;;;;9.75;7.63;;;;;;;47.00;12.82;101380.19;4999372;28;20050;-80
2021/09/02 10:17:37;;;;;;;7.80;7.05;;;;;;;46.85;13.15;101380.63;5002923;28;20482;-80
2021/09/02 10:20:10;;;;;;;8.80;7.78;;;;;;;47.11;12.90;101369.09;5026055;28;20496;-81
2021/09/02 10:22:38;;;;;;;9.43;7.60;;;;;;;46.86;12.55;101370.44;5005889;28;20045;-80
2021/09/02 10:25:35;;;;;;;7.70;6.95;;;;;;;47.57;12.70;101376.13;5014256;28;20054;-82
2021/09/02 10:28:04;;;;;;;;;;;;;;;46.87;13.45;101363.16;5008924;28;20054;-82
2021/09/02 10:30:33;;;;;;;8.68;7.00;;;;;;;47.32;12.89;101365.69;5014558;28;19997;-81
2021/09/02 10:33:01;;;;;;;12.82;8.57;;;;;;;47.52;13.27;101359.25;5009685;28;20819;-82
2021/09/02 10:35:37;;;;;;;10.25;9.20;;;;;;;47.51;13.04;101363.56;5013179;28;20060;-84
2021/09/02 10:38:07;;;;;;;9.85;8.55;;;;;;;48.20;12.53;101367.22;5021228;28;20045;-83
2021/09/02 10:40:46;;;;;;;11.20;8.65;;;;;;;48.00;12.13;101358.94;5011715;28;20046;-83
2021/09/02 10:43:14;;;;;;;10.60;8.80;;;;;;;48.29;12.39;101363.88;5013804;28;20049;-83
2021/09/02 10:45:43;;;;;;;10.70;9.32;;;;;;;48.27;12.86;101366.59;5009843;28;20445;-83
2021/09/02 10:48:16;;;;;;;10.90;9.52;;;;;;;47.96;12.06;101360.03;5010835;28;20073;-83
2021/09/02 10:50:47;;;;;;;12.10;9.07;;;;;;;48.00;12.37;101358.94;5008682;28;20054;-83
2021/09/02 10:53:16;;;;;;;11.52;8.35;;;;;;;47.61;12.85;101354.31;5013320;28;20140;-83
2021/09/02 10:55:50;;;;;;;11.73;8.90;;;;;;;46.43;13.82;101350.41;5009541;28;20049;-83
2021/09/02 10:58:48;;;;;;;9.82;8.38;;;;;;;46.33;13.58;101347.78;5001243;28;20065;-85
2021/09/02 11:01:32;;;;;;;10.65;8.55;;;;;;;45.12;14.50;101347.22;5003568;28;20126;-85
2021/09/02 11:04:03;;;;;;;10.40;9.32;;;;;;;43.22;16.30;101349.19;5007998;28;20054;-85
2021/09/02 11:06:48;;;;;;;10.52;8.70;;;;;;;42.59;17.01;101347.13;5015576;28;20053;-84
2021/09/02 11:09:29;;;;;;;12.02;10.20;;;;;;;41.39;17.74;101346.22;5015660;28;20049;-79
2021/09/02 11:11:56;;;;;;;12.35;9.73;;;;;;;42.91;16.62;101342.06;5019583;28;20054;-83
2021/09/02 11:14:24;;;;;;;11.82;8.55;;;;;;;43.87;15.86;101347.66;5003005;28;20057;-83
2021/09/02 11:16:53;;;;;;;8.93;7.72;;;;;;;44.66;14.56;101344.88;5016466;28;20574;-81
2021/09/02 11:19:31;;;;;;;9.95;8.95;;;;;;;44.14;16.09;101346.13;5019149;28;20053;-82
2021/09/02 11:22:07;;;;;;;14.88;11.48;;;;;;;45.31;14.58;101340.78;5017802;28;20058;-82
2021/09/02 11:24:42;;;;;;;11.02;9.90;;;;;;;43.93;15.65;101342.59;5016484;28;20054;-82